sensor_id;sensor_type;location;lat;lon;timestamp;P1;durP1;ratioP1;P2;durP2;ratioP2
6209;SDS011;3138;52.550;13.148;2023-04-06T00:00:23;11.53;;;6.93;;
6209;SDS011;3138;52.550;13.148;2023-04-06T00:02:50;19.83;;;6.70;;
6209;SDS011;3138;52.550;13.148;2023-04-06T00:05:17;13.93;;;5.97;;
6209;SDS011;3138;52.550;13.148;2023-04-06T00:07:44;12.60;;;5.90;;
6209;SDS011;3138;52.550;13.148;2023-04-06T00:10:11;15.20;;;6.60;;
6209;SDS011;3138;52.550;13.148;2023-04-06T00:12:38;14.60;;;6.20;;
6209;SDS011;3138;52.550;13.148;2023-04-06T00:15:06;23.00;;;5.90;;
6209;SDS011;3138;52.550;13.148;2023-04-06T00:17:34;10.93;;;6.70;;
6209;SDS011;3138;52.550;13.148;2023-04-06T00:20:01;12.50;;;5.80;;
6209;SDS011;3138;52.550;13.148;2023-04-06T00:22:29;15.97;;;7.73;;
6209;SDS011;3138;52.550;13.148;2023-04-06T00:24:56;18.27;;;6.90;;
6209;SDS011;3138;52.550;13.148;2023-04-06T00:27:23;13.50;;;8.27;;
6209;SDS011;3138;52.550;13.148;2023-04-06T00:29:50;17.33;;;7.53;;
6209;SDS011;3138;52.550;13.148;2023-04-06T00:32:17;17.90;;;6.80;;
6209;SDS011;3138;52.550;13.148;2023-04-06T00:34:45;12.10;;;7.30;;
6209;SDS011;3138;52.550;13.148;2023-04-06T00:37:12;14.43;;;7.50;;
6209;SDS011;3138;52.550;13.148;2023-04-06T00:39:39;12.10;;;7.03;;
6209;SDS011;3138;52.550;13.148;2023-04-06T00:42:07;9.33;;;5.73;;
6209;SDS011;3138;52.550;13.148;2023-04-06T00:44:38;16.50;;;7.00;;
6209;SDS011;3138;52.550;13.148;2023-04-06T00:47:05;22.73;;;7.47;;
6209;SDS011;3138;52.550;13.148;2023-04-06T00:49:33;11.60;;;6.10;;
6209;SDS011;3138;52.550;13.148;2023-04-06T00:52:01;14.80;;;7.07;;
6209;SDS011;3138;52.550;13.148;2023-04-06T00:54:29;12.70;;;6.93;;
6209;SDS011;3138;52.550;13.148;2023-04-06T00:56:56;12.20;;;7.07;;
6209;SDS011;3138;52.550;13.148;2023-04-06T00:59:23;15.37;;;6.83;;
6209;SDS011;3138;52.550;13.148;2023-04-06T01:01:50;11.53;;;7.27;;
6209;SDS011;3138;52.550;13.148;2023-04-06T01:04:18;14.63;;;7.50;;
6209;SDS011;3138;52.550;13.148;2023-04-06T01:06:47;14.10;;;6.60;;
6209;SDS011;3138;52.550;13.148;2023-04-06T01:09:15;24.03;;;7.60;;
6209;SDS011;3138;52.550;13.148;2023-04-06T01:11:43;13.93;;;6.13;;
6209;SDS011;3138;52.550;13.148;2023-04-06T01:14:10;12.57;;;6.60;;
6209;SDS011;3138;52.550;13.148;2023-04-06T01:16:37;15.07;;;7.20;;
6209;SDS011;3138;52.550;13.148;2023-04-06T01:19:07;12.93;;;6.40;;
6209;SDS011;3138;52.550;13.148;2023-04-06T01:21:35;10.30;;;6.90;;
6209;SDS011;3138;52.550;13.148;2023-04-06T01:24:03;18.90;;;6.10;;
6209;SDS011;3138;52.550;13.148;2023-04-06T01:26:31;12.70;;;6.50;;
6209;SDS011;3138;52.550;13.148;2023-04-06T01:28:58;11.23;;;6.20;;
6209;SDS011;3138;52.550;13.148;2023-04-06T01:31:25;10.67;;;6.40;;
6209;SDS011;3138;52.550;13.148;2023-04-06T01:33:53;12.63;;;6.73;;
6209;SDS011;3138;52.550;13.148;2023-04-06T01:36:20;14.43;;;6.60;;
6209;SDS011;3138;52.550;13.148;2023-04-06T01:38:47;12.27;;;6.80;;
6209;SDS011;3138;52.550;13.148;2023-04-06T01:41:16;15.53;;;7.20;;
6209;SDS011;3138;52.550;13.148;2023-04-06T01:43:44;19.70;;;8.00;;
6209;SDS011;3138;52.550;13.148;2023-04-06T01:46:13;12.50;;;6.50;;
6209;SDS011;3138;52.550;13.148;2023-04-06T01:48:40;8.93;;;6.20;;
6209;SDS011;3138;52.550;13.148;2023-04-06T01:51:07;9.53;;;6.13;;
6209;SDS011;3138;52.550;13.148;2023-04-06T01:53:34;17.50;;;6.27;;
6209;SDS011;3138;52.550;13.148;2023-04-06T01:56:01;12.30;;;7.20;;
6209;SDS011;3138;52.550;13.148;2023-04-06T01:58:29;15.03;;;6.63;;
6209;SDS011;3138;52.550;13.148;2023-04-06T02:00:56;14.30;;;6.53;;
6209;SDS011;3138;52.550;13.148;2023-04-06T02:03:23;9.33;;;5.40;;
6209;SDS011;3138;52.550;13.148;2023-04-06T02:05:50;16.27;;;5.63;;
6209;SDS011;3138;52.550;13.148;2023-04-06T02:08:17;11.30;;;6.77;;
6209;SDS011;3138;52.550;13.148;2023-04-06T02:10:44;9.23;;;6.50;;
6209;SDS011;3138;52.550;13.148;2023-04-06T02:13:10;14.53;;;7.10;;
6209;SDS011;3138;52.550;13.148;2023-04-06T02:15:39;7.53;;;5.63;;
6209;SDS011;3138;52.550;13.148;2023-04-06T02:18:06;14.33;;;7.03;;
6209;SDS011;3138;52.550;13.148;2023-04-06T02:20:32;7.27;;;6.17;;
6209;SDS011;3138;52.550;13.148;2023-04-06T02:22:59;13.10;;;6.67;;
6209;SDS011;3138;52.550;13.148;2023-04-06T02:25:26;14.93;;;7.13;;
6209;SDS011;3138;52.550;13.148;2023-04-06T02:27:53;12.20;;;6.93;;
6209;SDS011;3138;52.550;13.148;2023-04-06T02:30:20;12.40;;;7.50;;
6209;SDS011;3138;52.550;13.148;2023-04-06T02:32:49;20.13;;;7.20;;
6209;SDS011;3138;52.550;13.148;2023-04-06T02:35:16;13.23;;;6.03;;
6209;SDS011;3138;52.550;13.148;2023-04-06T02:37:43;15.47;;;6.67;;
6209;SDS011;3138;52.550;13.148;2023-04-06T02:40:10;15.53;;;7.93;;
6209;SDS011;3138;52.550;13.148;2023-04-06T02:42:37;13.10;;;6.57;;
6209;SDS011;3138;52.550;13.148;2023-04-06T02:45:04;16.80;;;7.73;;
6209;SDS011;3138;52.550;13.148;2023-04-06T02:47:32;14.37;;;6.80;;
6209;SDS011;3138;52.550;13.148;2023-04-06T02:50:01;10.70;;;6.90;;
6209;SDS011;3138;52.550;13.148;2023-04-06T02:52:28;6.63;;;5.67;;
6209;SDS011;3138;52.550;13.148;2023-04-06T02:54:55;13.90;;;6.67;;
6209;SDS011;3138;52.550;13.148;2023-04-06T02:57:22;10.30;;;6.03;;
6209;SDS011;3138;52.550;13.148;2023-04-06T02:59:48;11.03;;;5.60;;
6209;SDS011;3138;52.550;13.148;2023-04-06T03:02:15;7.90;;;5.43;;
6209;SDS011;3138;52.550;13.148;2023-04-06T03:04:42;12.83;;;7.00;;
6209;SDS011;3138;52.550;13.148;2023-04-06T03:07:11;12.73;;;6.50;;
6209;SDS011;3138;52.550;13.148;2023-04-06T03:09:38;20.53;;;7.13;;
6209;SDS011;3138;52.550;13.148;2023-04-06T03:12:05;9.30;;;6.77;;
6209;SDS011;3138;52.550;13.148;2023-04-06T03:14:32;13.60;;;7.00;;
6209;SDS011;3138;52.550;13.148;2023-04-06T03:16:59;10.63;;;6.27;;
6209;SDS011;3138;52.550;13.148;2023-04-06T03:19:27;10.93;;;6.73;;
6209;SDS011;3138;52.550;13.148;2023-04-06T03:21:54;10.37;;;6.20;;
6209;SDS011;3138;52.550;13.148;2023-04-06T03:24:24;9.70;;;7.40;;
6209;SDS011;3138;52.550;13.148;2023-04-06T03:26:51;12.97;;;7.87;;
6209;SDS011;3138;52.550;13.148;2023-04-06T03:29:18;9.87;;;6.80;;
6209;SDS011;3138;52.550;13.148;2023-04-06T03:31:45;12.90;;;7.80;;
6209;SDS011;3138;52.550;13.148;2023-04-06T03:34:12;15.40;;;6.10;;
6209;SDS011;3138;52.550;13.148;2023-04-06T03:36:38;11.37;;;7.10;;
6209;SDS011;3138;52.550;13.148;2023-04-06T03:39:05;12.93;;;8.27;;
6209;SDS011;3138;52.550;13.148;2023-04-06T03:41:34;12.77;;;6.70;;
6209;SDS011;3138;52.550;13.148;2023-04-06T03:44:01;12.53;;;6.77;;
6209;SDS011;3138;52.550;13.148;2023-04-06T03:46:27;8.90;;;6.83;;
6209;SDS011;3138;52.550;13.148;2023-04-06T03:48:54;11.87;;;6.70;;
6209;SDS011;3138;52.550;13.148;2023-04-06T03:51:21;13.93;;;6.90;;
6209;SDS011;3138;52.550;13.148;2023-04-06T03:53:48;21.93;;;8.30;;
6209;SDS011;3138;52.550;13.148;2023-04-06T03:56:15;9.23;;;6.40;;
6209;SDS011;3138;52.550;13.148;2023-04-06T03:58:43;23.97;;;8.07;;
6209;SDS011;3138;52.550;13.148;2023-04-06T04:01:14;13.40;;;6.50;;
6209;SDS011;3138;52.550;13.148;2023-04-06T04:03:44;19.17;;;7.53;;
6209;SDS011;3138;52.550;13.148;2023-04-06T04:06:11;21.13;;;7.47;;
6209;SDS011;3138;52.550;13.148;2023-04-06T04:08:38;11.13;;;8.30;;
6209;SDS011;3138;52.550;13.148;2023-04-06T04:11:05;9.77;;;6.10;;
6209;SDS011;3138;52.550;13.148;2023-04-06T04:13:32;10.73;;;6.40;;
6209;SDS011;3138;52.550;13.148;2023-04-06T04:16:00;13.10;;;6.60;;
6209;SDS011;3138;52.550;13.148;2023-04-06T04:18:27;17.03;;;8.03;;
6209;SDS011;3138;52.550;13.148;2023-04-06T04:20:54;12.43;;;6.97;;
6209;SDS011;3138;52.550;13.148;2023-04-06T04:23:21;16.43;;;7.40;;
6209;SDS011;3138;52.550;13.148;2023-04-06T04:25:48;9.67;;;6.50;;
6209;SDS011;3138;52.550;13.148;2023-04-06T04:28:16;9.97;;;7.10;;
6209;SDS011;3138;52.550;13.148;2023-04-06T04:30:43;10.90;;;5.83;;
6209;SDS011;3138;52.550;13.148;2023-04-06T04:33:11;15.57;;;8.23;;
6209;SDS011;3138;52.550;13.148;2023-04-06T04:35:38;11.13;;;6.50;;
6209;SDS011;3138;52.550;13.148;2023-04-06T04:38:05;10.90;;;6.60;;
6209;SDS011;3138;52.550;13.148;2023-04-06T04:40:35;21.73;;;8.90;;
6209;SDS011;3138;52.550;13.148;2023-04-06T04:43:02;13.23;;;7.97;;
6209;SDS011;3138;52.550;13.148;2023-04-06T04:45:29;19.50;;;10.10;;
6209;SDS011;3138;52.550;13.148;2023-04-06T04:47:56;18.70;;;10.77;;
6209;SDS011;3138;52.550;13.148;2023-04-06T04:50:24;24.87;;;9.77;;
6209;SDS011;3138;52.550;13.148;2023-04-06T04:52:51;18.47;;;10.13;;
6209;SDS011;3138;52.550;13.148;2023-04-06T04:55:18;25.30;;;10.87;;
6209;SDS011;3138;52.550;13.148;2023-04-06T04:57:45;26.30;;;10.53;;
6209;SDS011;3138;52.550;13.148;2023-04-06T05:00:13;34.13;;;13.80;;
6209;SDS011;3138;52.550;13.148;2023-04-06T05:02:40;26.90;;;12.13;;
6209;SDS011;3138;52.550;13.148;2023-04-06T05:05:07;26.00;;;12.87;;
6209;SDS011;3138;52.550;13.148;2023-04-06T05:07:36;29.00;;;11.83;;
6209;SDS011;3138;52.550;13.148;2023-04-06T05:10:03;33.83;;;14.47;;
6209;SDS011;3138;52.550;13.148;2023-04-06T05:12:30;28.37;;;12.77;;
6209;SDS011;3138;52.550;13.148;2023-04-06T05:14:57;34.13;;;15.27;;
6209;SDS011;3138;52.550;13.148;2023-04-06T05:17:24;32.43;;;14.63;;
6209;SDS011;3138;52.550;13.148;2023-04-06T05:19:51;31.13;;;14.73;;
6209;SDS011;3138;52.550;13.148;2023-04-06T05:22:18;35.40;;;14.57;;
6209;SDS011;3138;52.550;13.148;2023-04-06T05:24:47;44.60;;;16.10;;
6209;SDS011;3138;52.550;13.148;2023-04-06T05:27:13;43.67;;;15.00;;
6209;SDS011;3138;52.550;13.148;2023-04-06T05:29:40;30.23;;;13.03;;
6209;SDS011;3138;52.550;13.148;2023-04-06T05:32:07;35.53;;;13.47;;
6209;SDS011;3138;52.550;13.148;2023-04-06T05:34:37;28.63;;;13.80;;
6209;SDS011;3138;52.550;13.148;2023-04-06T05:37:08;38.70;;;13.90;;
6209;SDS011;3138;52.550;13.148;2023-04-06T05:39:35;29.27;;;13.77;;
6209;SDS011;3138;52.550;13.148;2023-04-06T05:42:04;37.70;;;14.90;;
6209;SDS011;3138;52.550;13.148;2023-04-06T05:44:31;28.57;;;12.50;;
6209;SDS011;3138;52.550;13.148;2023-04-06T05:46:58;24.60;;;12.80;;
6209;SDS011;3138;52.550;13.148;2023-04-06T05:49:25;20.97;;;10.80;;
6209;SDS011;3138;52.550;13.148;2023-04-06T05:51:52;18.77;;;11.07;;
6209;SDS011;3138;52.550;13.148;2023-04-06T05:54:19;13.40;;;8.77;;
6209;SDS011;3138;52.550;13.148;2023-04-06T05:56:46;19.00;;;9.53;;
6209;SDS011;3138;52.550;13.148;2023-04-06T05:59:14;20.67;;;8.50;;
6209;SDS011;3138;52.550;13.148;2023-04-06T06:01:41;23.93;;;10.03;;
6209;SDS011;3138;52.550;13.148;2023-04-06T06:04:08;12.37;;;8.57;;
6209;SDS011;3138;52.550;13.148;2023-04-06T06:06:35;23.50;;;9.63;;
6209;SDS011;3138;52.550;13.148;2023-04-06T06:09:02;82.77;;;40.80;;
6209;SDS011;3138;52.550;13.148;2023-04-06T06:11:29;18.00;;;10.10;;
6209;SDS011;3138;52.550;13.148;2023-04-06T06:13:58;34.33;;;14.77;;
6209;SDS011;3138;52.550;13.148;2023-04-06T06:16:26;12.07;;;7.43;;
6209;SDS011;3138;52.550;13.148;2023-04-06T06:18:53;16.57;;;8.67;;
6209;SDS011;3138;52.550;13.148;2023-04-06T06:21:20;12.03;;;7.80;;
6209;SDS011;3138;52.550;13.148;2023-04-06T06:23:47;15.73;;;8.23;;
6209;SDS011;3138;52.550;13.148;2023-04-06T06:26:15;8.03;;;7.23;;
6209;SDS011;3138;52.550;13.148;2023-04-06T06:28:42;11.07;;;7.50;;
6209;SDS011;3138;52.550;13.148;2023-04-06T06:31:09;21.23;;;8.63;;
6209;SDS011;3138;52.550;13.148;2023-04-06T06:33:38;14.17;;;7.43;;
6209;SDS011;3138;52.550;13.148;2023-04-06T06:36:06;16.00;;;8.40;;
6209;SDS011;3138;52.550;13.148;2023-04-06T06:38:33;13.83;;;7.33;;
6209;SDS011;3138;52.550;13.148;2023-04-06T06:41:00;10.70;;;6.83;;
6209;SDS011;3138;52.550;13.148;2023-04-06T06:43:27;11.97;;;7.27;;
6209;SDS011;3138;52.550;13.148;2023-04-06T06:45:54;15.27;;;8.00;;
6209;SDS011;3138;52.550;13.148;2023-04-06T06:48:21;10.63;;;7.73;;
6209;SDS011;3138;52.550;13.148;2023-04-06T06:50:49;14.70;;;7.50;;
6209;SDS011;3138;52.550;13.148;2023-04-06T06:53:16;10.67;;;5.80;;
6209;SDS011;3138;52.550;13.148;2023-04-06T06:55:44;16.27;;;6.80;;
6209;SDS011;3138;52.550;13.148;2023-04-06T06:58:11;9.33;;;6.43;;
6209;SDS011;3138;52.550;13.148;2023-04-06T07:00:38;14.43;;;7.60;;
6209;SDS011;3138;52.550;13.148;2023-04-06T07:03:05;11.87;;;6.50;;
6209;SDS011;3138;52.550;13.148;2023-04-06T07:05:32;12.10;;;6.70;;
6209;SDS011;3138;52.550;13.148;2023-04-06T07:08:00;11.97;;;7.23;;
6209;SDS011;3138;52.550;13.148;2023-04-06T07:10:27;18.47;;;8.90;;
6209;SDS011;3138;52.550;13.148;2023-04-06T07:12:54;14.10;;;6.83;;
6209;SDS011;3138;52.550;13.148;2023-04-06T07:15:21;9.30;;;6.67;;
6209;SDS011;3138;52.550;13.148;2023-04-06T07:17:48;9.70;;;6.97;;
6209;SDS011;3138;52.550;13.148;2023-04-06T07:20:17;13.27;;;7.17;;
6209;SDS011;3138;52.550;13.148;2023-04-06T07:22:44;8.73;;;6.30;;
6209;SDS011;3138;52.550;13.148;2023-04-06T07:25:12;11.50;;;6.70;;
6209;SDS011;3138;52.550;13.148;2023-04-06T07:27:39;13.10;;;6.63;;
6209;SDS011;3138;52.550;13.148;2023-04-06T07:30:07;11.63;;;6.20;;
6209;SDS011;3138;52.550;13.148;2023-04-06T07:32:35;7.03;;;6.00;;
6209;SDS011;3138;52.550;13.148;2023-04-06T07:35:02;14.83;;;7.47;;
6209;SDS011;3138;52.550;13.148;2023-04-06T07:37:29;8.93;;;6.33;;
6209;SDS011;3138;52.550;13.148;2023-04-06T07:39:56;11.07;;;6.60;;
6209;SDS011;3138;52.550;13.148;2023-04-06T07:42:24;11.07;;;6.80;;
6209;SDS011;3138;52.550;13.148;2023-04-06T07:44:51;16.43;;;6.83;;
6209;SDS011;3138;52.550;13.148;2023-04-06T07:47:18;7.13;;;5.60;;
6209;SDS011;3138;52.550;13.148;2023-04-06T07:49:45;8.90;;;5.00;;
6209;SDS011;3138;52.550;13.148;2023-04-06T07:52:12;6.03;;;4.50;;
6209;SDS011;3138;52.550;13.148;2023-04-06T07:54:40;6.10;;;4.57;;
6209;SDS011;3138;52.550;13.148;2023-04-06T07:57:07;10.17;;;5.07;;
6209;SDS011;3138;52.550;13.148;2023-04-06T07:59:35;6.90;;;4.97;;
6209;SDS011;3138;52.550;13.148;2023-04-06T08:02:02;14.47;;;4.43;;
6209;SDS011;3138;52.550;13.148;2023-04-06T08:04:30;5.93;;;4.50;;
6209;SDS011;3138;52.550;13.148;2023-04-06T08:06:57;6.40;;;3.70;;
6209;SDS011;3138;52.550;13.148;2023-04-06T08:09:24;18.03;;;4.10;;
6209;SDS011;3138;52.550;13.148;2023-04-06T08:11:51;9.63;;;5.90;;
6209;SDS011;3138;52.550;13.148;2023-04-06T08:14:18;11.47;;;5.23;;
6209;SDS011;3138;52.550;13.148;2023-04-06T08:16:47;8.77;;;4.87;;
6209;SDS011;3138;52.550;13.148;2023-04-06T08:19:14;6.40;;;4.40;;
6209;SDS011;3138;52.550;13.148;2023-04-06T08:21:42;6.00;;;4.00;;
6209;SDS011;3138;52.550;13.148;2023-04-06T08:24:09;6.13;;;4.60;;
6209;SDS011;3138;52.550;13.148;2023-04-06T08:26:36;4.03;;;3.63;;
6209;SDS011;3138;52.550;13.148;2023-04-06T08:29:03;7.53;;;3.70;;
6209;SDS011;3138;52.550;13.148;2023-04-06T08:31:32;12.43;;;3.93;;
6209;SDS011;3138;52.550;13.148;2023-04-06T08:34:00;16.80;;;3.47;;
6209;SDS011;3138;52.550;13.148;2023-04-06T08:36:28;4.53;;;3.13;;
6209;SDS011;3138;52.550;13.148;2023-04-06T08:38:55;5.37;;;3.00;;
6209;SDS011;3138;52.550;13.148;2023-04-06T08:41:23;7.17;;;4.40;;
6209;SDS011;3138;52.550;13.148;2023-04-06T08:43:52;15.57;;;3.67;;
6209;SDS011;3138;52.550;13.148;2023-04-06T08:46:24;8.93;;;3.50;;
6209;SDS011;3138;52.550;13.148;2023-04-06T08:48:54;8.70;;;2.80;;
6209;SDS011;3138;52.550;13.148;2023-04-06T08:51:24;5.13;;;2.43;;
6209;SDS011;3138;52.550;13.148;2023-04-06T08:53:52;6.77;;;3.13;;
6209;SDS011;3138;52.550;13.148;2023-04-06T08:56:20;5.57;;;3.17;;
6209;SDS011;3138;52.550;13.148;2023-04-06T08:58:48;6.20;;;3.10;;
6209;SDS011;3138;52.550;13.148;2023-04-06T09:01:17;6.60;;;2.47;;
6209;SDS011;3138;52.550;13.148;2023-04-06T09:03:46;3.53;;;2.77;;
6209;SDS011;3138;52.550;13.148;2023-04-06T09:06:15;4.70;;;3.13;;
6209;SDS011;3138;52.550;13.148;2023-04-06T09:08:44;2.97;;;2.40;;
6209;SDS011;3138;52.550;13.148;2023-04-06T09:11:11;19.80;;;3.07;;
6209;SDS011;3138;52.550;13.148;2023-04-06T09:13:44;17.33;;;3.47;;
6209;SDS011;3138;52.550;13.148;2023-04-06T09:16:13;7.13;;;3.40;;
6209;SDS011;3138;52.550;13.148;2023-04-06T09:18:40;8.27;;;3.40;;
6209;SDS011;3138;52.550;13.148;2023-04-06T09:21:07;2.60;;;2.40;;
6209;SDS011;3138;52.550;13.148;2023-04-06T09:23:35;6.17;;;3.33;;
6209;SDS011;3138;52.550;13.148;2023-04-06T09:26:10;16.00;;;2.70;;
6209;SDS011;3138;52.550;13.148;2023-04-06T09:28:42;5.13;;;2.97;;
6209;SDS011;3138;52.550;13.148;2023-04-06T09:31:10;4.13;;;3.37;;
6209;SDS011;3138;52.550;13.148;2023-04-06T09:33:38;4.10;;;2.50;;
6209;SDS011;3138;52.550;13.148;2023-04-06T09:36:06;3.83;;;2.87;;
6209;SDS011;3138;52.550;13.148;2023-04-06T09:38:34;6.03;;;2.87;;
6209;SDS011;3138;52.550;13.148;2023-04-06T09:41:02;6.50;;;2.90;;
6209;SDS011;3138;52.550;13.148;2023-04-06T09:43:31;5.60;;;3.50;;
6209;SDS011;3138;52.550;13.148;2023-04-06T09:45:58;10.37;;;4.93;;
6209;SDS011;3138;52.550;13.148;2023-04-06T09:48:28;7.07;;;3.70;;
6209;SDS011;3138;52.550;13.148;2023-04-06T09:50:59;6.47;;;3.57;;
6209;SDS011;3138;52.550;13.148;2023-04-06T09:53:30;4.73;;;3.40;;
6209;SDS011;3138;52.550;13.148;2023-04-06T09:56:02;8.40;;;3.40;;
6209;SDS011;3138;52.550;13.148;2023-04-06T09:58:35;4.77;;;3.70;;
6209;SDS011;3138;52.550;13.148;2023-04-06T10:01:11;7.90;;;3.07;;
6209;SDS011;3138;52.550;13.148;2023-04-06T10:03:41;11.87;;;3.03;;
6209;SDS011;3138;52.550;13.148;2023-04-06T10:06:14;5.37;;;3.10;;
6209;SDS011;3138;52.550;13.148;2023-04-06T10:08:43;4.37;;;3.00;;
6209;SDS011;3138;52.550;13.148;2023-04-06T10:11:13;6.30;;;3.00;;
6209;SDS011;3138;52.550;13.148;2023-04-06T10:13:43;5.57;;;2.90;;
6209;SDS011;3138;52.550;13.148;2023-04-06T10:16:12;11.60;;;3.20;;
6209;SDS011;3138;52.550;13.148;2023-04-06T10:18:41;6.23;;;2.77;;
6209;SDS011;3138;52.550;13.148;2023-04-06T10:21:14;3.47;;;2.57;;
6209;SDS011;3138;52.550;13.148;2023-04-06T10:23:47;3.17;;;2.87;;
6209;SDS011;3138;52.550;13.148;2023-04-06T10:26:16;3.40;;;3.07;;
6209;SDS011;3138;52.550;13.148;2023-04-06T10:28:45;14.03;;;3.30;;
6209;SDS011;3138;52.550;13.148;2023-04-06T10:31:14;7.30;;;3.47;;
6209;SDS011;3138;52.550;13.148;2023-04-06T10:33:41;19.83;;;4.67;;
6209;SDS011;3138;52.550;13.148;2023-04-06T10:36:22;5.10;;;3.10;;
6209;SDS011;3138;52.550;13.148;2023-04-06T10:38:53;4.30;;;2.97;;
6209;SDS011;3138;52.550;13.148;2023-04-06T10:41:21;5.73;;;3.37;;
6209;SDS011;3138;52.550;13.148;2023-04-06T10:43:55;5.87;;;3.27;;
6209;SDS011;3138;52.550;13.148;2023-04-06T10:46:27;3.40;;;3.07;;
6209;SDS011;3138;52.550;13.148;2023-04-06T10:48:55;4.57;;;3.47;;
6209;SDS011;3138;52.550;13.148;2023-04-06T10:51:24;7.40;;;3.97;;
6209;SDS011;3138;52.550;13.148;2023-04-06T10:53:53;3.70;;;2.90;;
6209;SDS011;3138;52.550;13.148;2023-04-06T10:56:22;4.60;;;3.80;;
6209;SDS011;3138;52.550;13.148;2023-04-06T10:58:53;3.30;;;3.10;;
6209;SDS011;3138;52.550;13.148;2023-04-06T11:01:23;4.53;;;3.43;;
6209;SDS011;3138;52.550;13.148;2023-04-06T11:03:52;4.50;;;2.70;;
6209;SDS011;3138;52.550;13.148;2023-04-06T11:06:20;3.43;;;2.60;;
6209;SDS011;3138;52.550;13.148;2023-04-06T11:08:48;5.93;;;3.53;;
6209;SDS011;3138;52.550;13.148;2023-04-06T11:11:16;3.90;;;3.40;;
6209;SDS011;3138;52.550;13.148;2023-04-06T11:13:45;6.17;;;3.60;;
6209;SDS011;3138;52.550;13.148;2023-04-06T11:16:14;3.47;;;3.20;;
6209;SDS011;3138;52.550;13.148;2023-04-06T11:18:50;4.40;;;3.43;;
6209;SDS011;3138;52.550;13.148;2023-04-06T11:21:18;6.23;;;4.20;;
6209;SDS011;3138;52.550;13.148;2023-04-06T11:23:46;4.10;;;3.63;;
6209;SDS011;3138;52.550;13.148;2023-04-06T11:26:13;6.97;;;4.37;;
6209;SDS011;3138;52.550;13.148;2023-04-06T11:28:41;8.40;;;3.63;;
6209;SDS011;3138;52.550;13.148;2023-04-06T11:31:08;3.73;;;3.43;;
6209;SDS011;3138;52.550;13.148;2023-04-06T11:33:36;6.13;;;3.43;;
6209;SDS011;3138;52.550;13.148;2023-04-06T11:36:05;3.83;;;3.47;;
6209;SDS011;3138;52.550;13.148;2023-04-06T11:38:33;4.80;;;3.90;;
6209;SDS011;3138;52.550;13.148;2023-04-06T11:41:00;3.40;;;3.17;;
6209;SDS011;3138;52.550;13.148;2023-04-06T11:43:28;3.70;;;3.33;;
6209;SDS011;3138;52.550;13.148;2023-04-06T11:45:59;4.27;;;3.80;;
6209;SDS011;3138;52.550;13.148;2023-04-06T11:48:28;6.63;;;3.70;;
6209;SDS011;3138;52.550;13.148;2023-04-06T11:50:56;3.70;;;3.40;;
6209;SDS011;3138;52.550;13.148;2023-04-06T11:53:25;7.60;;;2.90;;
6209;SDS011;3138;52.550;13.148;2023-04-06T11:55:52;7.13;;;3.67;;
6209;SDS011;3138;52.550;13.148;2023-04-06T11:58:19;9.67;;;3.73;;
6209;SDS011;3138;52.550;13.148;2023-04-06T12:00:46;6.00;;;3.50;;
6209;SDS011;3138;52.550;13.148;2023-04-06T12:03:13;4.90;;;3.83;;
6209;SDS011;3138;52.550;13.148;2023-04-06T12:05:40;4.10;;;3.33;;
6209;SDS011;3138;52.550;13.148;2023-04-06T12:08:07;10.07;;;4.10;;
6209;SDS011;3138;52.550;13.148;2023-04-06T12:10:35;5.60;;;4.03;;
6209;SDS011;3138;52.550;13.148;2023-04-06T12:13:03;5.83;;;3.67;;
6209;SDS011;3138;52.550;13.148;2023-04-06T12:15:30;5.27;;;3.30;;
6209;SDS011;3138;52.550;13.148;2023-04-06T12:17:57;8.33;;;3.47;;
6209;SDS011;3138;52.550;13.148;2023-04-06T12:20:24;3.53;;;3.33;;
6209;SDS011;3138;52.550;13.148;2023-04-06T12:22:51;5.93;;;3.27;;
6209;SDS011;3138;52.550;13.148;2023-04-06T12:25:18;4.13;;;3.20;;
6209;SDS011;3138;52.550;13.148;2023-04-06T12:27:46;9.90;;;3.10;;
6209;SDS011;3138;52.550;13.148;2023-04-06T12:30:14;5.67;;;3.67;;
6209;SDS011;3138;52.550;13.148;2023-04-06T12:32:41;6.80;;;4.10;;
6209;SDS011;3138;52.550;13.148;2023-04-06T12:35:08;4.00;;;3.63;;
6209;SDS011;3138;52.550;13.148;2023-04-06T12:37:36;3.33;;;2.80;;
6209;SDS011;3138;52.550;13.148;2023-04-06T12:40:04;4.30;;;3.43;;
6209;SDS011;3138;52.550;13.148;2023-04-06T12:42:32;5.10;;;3.40;;
6209;SDS011;3138;52.550;13.148;2023-04-06T12:45:00;4.20;;;3.33;;
6209;SDS011;3138;52.550;13.148;2023-04-06T12:47:27;3.93;;;3.40;;
6209;SDS011;3138;52.550;13.148;2023-04-06T12:49:54;3.13;;;2.90;;
6209;SDS011;3138;52.550;13.148;2023-04-06T12:52:21;4.30;;;3.63;;
6209;SDS011;3138;52.550;13.148;2023-04-06T12:54:48;6.57;;;3.63;;
6209;SDS011;3138;52.550;13.148;2023-04-06T12:57:16;3.53;;;3.27;;
6209;SDS011;3138;52.550;13.148;2023-04-06T12:59:43;3.50;;;2.60;;
6209;SDS011;3138;52.550;13.148;2023-04-06T13:02:12;8.93;;;3.47;;
6209;SDS011;3138;52.550;13.148;2023-04-06T13:04:39;6.67;;;3.60;;
6209;SDS011;3138;52.550;13.148;2023-04-06T13:07:06;6.60;;;4.20;;
6209;SDS011;3138;52.550;13.148;2023-04-06T13:09:33;5.73;;;4.00;;
6209;SDS011;3138;52.550;13.148;2023-04-06T13:12:00;4.43;;;2.93;;
6209;SDS011;3138;52.550;13.148;2023-04-06T13:14:27;5.80;;;3.30;;
6209;SDS011;3138;52.550;13.148;2023-04-06T13:16:54;3.70;;;3.43;;
6209;SDS011;3138;52.550;13.148;2023-04-06T13:19:23;3.47;;;3.03;;
6209;SDS011;3138;52.550;13.148;2023-04-06T13:21:50;6.87;;;3.60;;
6209;SDS011;3138;52.550;13.148;2023-04-06T13:24:17;3.80;;;3.10;;
6209;SDS011;3138;52.550;13.148;2023-04-06T13:26:44;5.63;;;3.23;;
6209;SDS011;3138;52.550;13.148;2023-04-06T13:29:11;4.33;;;3.10;;
6209;SDS011;3138;52.550;13.148;2023-04-06T13:31:38;3.67;;;2.90;;
6209;SDS011;3138;52.550;13.148;2023-04-06T13:34:05;17.70;;;3.47;;
6209;SDS011;3138;52.550;13.148;2023-04-06T13:36:34;4.87;;;4.07;;
6209;SDS011;3138;52.550;13.148;2023-04-06T13:39:01;5.53;;;3.37;;
6209;SDS011;3138;52.550;13.148;2023-04-06T13:41:28;5.43;;;3.20;;
6209;SDS011;3138;52.550;13.148;2023-04-06T13:43:55;4.53;;;3.17;;
6209;SDS011;3138;52.550;13.148;2023-04-06T13:46:23;3.70;;;3.10;;
6209;SDS011;3138;52.550;13.148;2023-04-06T13:48:50;4.13;;;2.97;;
6209;SDS011;3138;52.550;13.148;2023-04-06T13:51:17;5.40;;;3.67;;
6209;SDS011;3138;52.550;13.148;2023-04-06T13:53:45;5.83;;;3.73;;
6209;SDS011;3138;52.550;13.148;2023-04-06T13:56:12;3.50;;;3.10;;
6209;SDS011;3138;52.550;13.148;2023-04-06T13:58:39;5.93;;;3.27;;
6209;SDS011;3138;52.550;13.148;2023-04-06T14:01:06;7.57;;;3.20;;
6209;SDS011;3138;52.550;13.148;2023-04-06T14:03:34;5.57;;;3.13;;
6209;SDS011;3138;52.550;13.148;2023-04-06T14:06:01;4.53;;;3.53;;
6209;SDS011;3138;52.550;13.148;2023-04-06T14:08:36;8.83;;;4.27;;
6209;SDS011;3138;52.550;13.148;2023-04-06T14:11:04;4.03;;;3.27;;
6209;SDS011;3138;52.550;13.148;2023-04-06T14:13:33;3.17;;;2.93;;
6209;SDS011;3138;52.550;13.148;2023-04-06T14:16:00;6.13;;;3.20;;
6209;SDS011;3138;52.550;13.148;2023-04-06T14:18:27;7.00;;;3.60;;
6209;SDS011;3138;52.550;13.148;2023-04-06T14:20:56;3.13;;;2.90;;
6209;SDS011;3138;52.550;13.148;2023-04-06T14:23:23;4.40;;;3.57;;
6209;SDS011;3138;52.550;13.148;2023-04-06T14:25:51;8.03;;;3.67;;
6209;SDS011;3138;52.550;13.148;2023-04-06T14:28:27;9.53;;;3.13;;
6209;SDS011;3138;52.550;13.148;2023-04-06T14:30:54;3.10;;;2.80;;
6209;SDS011;3138;52.550;13.148;2023-04-06T14:33:21;7.30;;;2.93;;
6209;SDS011;3138;52.550;13.148;2023-04-06T14:35:48;8.80;;;3.40;;
6209;SDS011;3138;52.550;13.148;2023-04-06T14:38:15;8.97;;;3.40;;
6209;SDS011;3138;52.550;13.148;2023-04-06T14:40:42;5.23;;;3.60;;
6209;SDS011;3138;52.550;13.148;2023-04-06T14:43:08;3.33;;;3.10;;
6209;SDS011;3138;52.550;13.148;2023-04-06T14:45:37;8.50;;;3.20;;
6209;SDS011;3138;52.550;13.148;2023-04-06T14:48:04;6.40;;;3.37;;
6209;SDS011;3138;52.550;13.148;2023-04-06T14:50:32;5.00;;;2.53;;
6209;SDS011;3138;52.550;13.148;2023-04-06T14:52:59;2.93;;;2.73;;
6209;SDS011;3138;52.550;13.148;2023-04-06T14:55:26;3.33;;;3.00;;